createdAt,value
2022-12-17T00:01:03.809Z,98077.06
2022-12-17T00:03:49.582Z,98070.78
2022-12-17T00:06:35.748Z,98064.72
2022-12-17T00:09:32.881Z,98074.59
2022-12-17T00:12:18.259Z,98054.44
2022-12-17T00:15:03.400Z,98044.00
2022-12-17T00:17:50.035Z,98061.31
2022-12-17T00:20:35.253Z,98046.34
2022-12-17T00:23:22.519Z,98049.41
2022-12-17T00:26:12.066Z,98055.13
2022-12-17T00:28:57.829Z,98052.34
2022-12-17T00:31:45.120Z,98063.22
2022-12-17T00:34:37.437Z,98079.84
2022-12-17T00:37:23.059Z,98070.06
2022-12-17T00:40:08.284Z,98072.38
2022-12-17T00:42:53.652Z,98072.91
2022-12-17T00:45:41.818Z,98071.81
2022-12-17T00:48:27.121Z,98075.06
2022-12-17T00:51:15.352Z,98086.44
2022-12-17T00:54:00.701Z,98097.19
2022-12-17T00:56:46.035Z,98099.25
2022-12-17T00:59:39.711Z,98096.59
2022-12-17T01:02:25.312Z,98095.28
2022-12-17T01:05:11.268Z,98097.19
2022-12-17T01:07:57.888Z,98096.34
2022-12-17T01:10:44.820Z,98115.22
2022-12-17T01:13:32.276Z,98115.91
2022-12-17T01:16:21.959Z,98116.84
2022-12-17T01:19:07.286Z,98118.78
2022-12-17T01:21:53.409Z,98128.88
2022-12-17T01:24:40.455Z,98128.28
2022-12-17T01:27:26.829Z,98139.16
2022-12-17T01:30:12.710Z,98146.34
2022-12-17T01:32:58.017Z,98142.47
2022-12-17T01:35:43.398Z,98137.47
2022-12-17T01:38:29.750Z,98133.03
2022-12-17T01:41:16.801Z,98135.59
2022-12-17T01:44:02.227Z,98146.09
2022-12-17T01:46:51.690Z,98146.88
2022-12-17T01:49:38.285Z,98143.28
2022-12-17T01:52:24.159Z,98141.72
2022-12-17T01:55:09.634Z,98134.97
2022-12-17T01:57:57.175Z,98141.78
2022-12-17T02:00:43.042Z,98136.22
2022-12-17T02:03:33.468Z,98134.97
2022-12-17T02:06:29.268Z,98134.44
2022-12-17T02:09:27.556Z,98133.91
2022-12-17T02:12:25.780Z,98135.59
2022-12-17T02:15:20.122Z,98119.41
2022-12-17T02:18:11.891Z,98133.19
2022-12-17T02:21:01.017Z,98137.78
2022-12-17T02:23:57.665Z,98128.53
2022-12-17T02:26:55.758Z,98122.81
2022-12-17T02:29:43.546Z,98112.69
2022-12-17T02:32:31.925Z,98108.22
2022-12-17T02:35:20.019Z,98086.44
2022-12-17T02:38:05.700Z,98091.69
2022-12-17T02:40:50.187Z,98094.06
2022-12-17T02:43:38.497Z,98082.41
2022-12-17T02:46:25.428Z,98063.59
2022-12-17T02:49:11.295Z,98067.41
2022-12-17T02:51:57.538Z,98111.09
2022-12-17T02:54:47.964Z,98144.06
2022-12-17T02:57:33.309Z,98181.75
2022-12-17T03:00:20.547Z,98228.88
2022-12-17T03:03:08.158Z,98249.31
2022-12-17T03:05:53.663Z,98227.91
2022-12-17T03:08:39.006Z,98235.47
2022-12-17T03:11:24.344Z,98225.44
2022-12-17T03:14:10.557Z,98207.25
2022-12-17T03:16:57.765Z,98208.19
2022-12-17T03:19:43.009Z,98223.22
2022-12-17T03:22:28.398Z,98218.16
2022-12-17T03:25:13.967Z,98210.06
2022-12-17T03:27:59.643Z,98203.25
2022-12-17T03:30:48.929Z,98204.00
2022-12-17T03:33:36.372Z,98212.19
2022-12-17T03:36:22.368Z,98206.63
2022-12-17T03:39:06.851Z,98206.53
2022-12-17T03:41:52.335Z,98199.44
2022-12-17T03:44:37.626Z,98196.44
2022-12-17T03:47:22.875Z,98198.41
2022-12-17T03:50:09.529Z,98199.22
2022-12-17T03:52:54.899Z,98196.63
2022-12-17T03:55:40.245Z,98188.34
2022-12-17T03:58:25.877Z,98193.50
2022-12-17T04:01:11.418Z,98192.03
2022-12-17T04:03:56.919Z,98204.59
2022-12-17T04:06:43.495Z,98200.53
2022-12-17T04:09:28.828Z,98204.66
2022-12-17T04:12:14.132Z,98202.72
2022-12-17T04:14:59.431Z,98217.72
2022-12-17T04:17:45.308Z,98218.84
2022-12-17T04:20:30.717Z,98222.03
2022-12-17T04:23:17.747Z,98220.28
2022-12-17T04:26:03.039Z,98228.81
2022-12-17T04:28:48.281Z,98231.47
2022-12-17T04:31:33.740Z,98237.69
2022-12-17T04:34:30.717Z,98232.47
2022-12-17T04:37:16.066Z,98235.19
2022-12-17T04:40:02.695Z,98247.59
2022-12-17T04:42:48.261Z,98236.44
2022-12-17T04:45:33.813Z,98237.09
2022-12-17T04:48:20.701Z,98232.25
2022-12-17T04:51:17.455Z,98246.13
2022-12-17T04:54:02.810Z,98251.72
2022-12-17T04:56:49.865Z,98233.69
2022-12-17T04:59:35.255Z,98240.34
2022-12-17T05:02:20.572Z,98254.03
2022-12-17T05:05:06.315Z,98248.00
2022-12-17T05:07:51.632Z,98254.09
2022-12-17T05:10:42.215Z,98257.44
2022-12-17T05:13:29.133Z,98255.44
2022-12-17T05:16:14.965Z,98268.66
2022-12-17T05:19:00.723Z,98270.03
2022-12-17T05:21:46.651Z,98281.44
2022-12-17T05:24:31.977Z,98292.53
2022-12-17T05:27:17.444Z,98290.53
2022-12-17T05:30:04.707Z,98278.28
2022-12-17T05:32:49.951Z,98272.09
2022-12-17T05:35:35.974Z,98274.84
2022-12-17T05:38:23.365Z,98272.72
2022-12-17T05:41:09.713Z,98267.50
2022-12-17T05:43:55.110Z,98272.72
2022-12-17T05:46:42.309Z,98285.22
2022-12-17T05:49:27.621Z,98283.16
2022-12-17T05:52:13.198Z,98282.66
2022-12-17T05:54:58.426Z,98297.09
2022-12-17T05:57:43.852Z,98305.53
2022-12-17T06:00:30.335Z,98310.59
2022-12-17T06:03:18.957Z,98311.16
2022-12-17T06:06:04.278Z,98309.03
2022-12-17T06:08:49.790Z,98315.34
2022-12-17T06:11:35.007Z,98331.59
2022-12-17T06:14:20.535Z,98321.69
2022-12-17T06:17:05.716Z,98342.25
2022-12-17T06:19:52.964Z,98343.47
2022-12-17T06:22:38.750Z,98346.44
2022-12-17T06:25:27.109Z,98342.78
2022-12-17T06:28:17.060Z,98352.44
2022-12-17T06:31:09.326Z,98353.34
2022-12-17T06:33:56.226Z,98366.13
2022-12-17T06:36:43.343Z,98371.66
2022-12-17T06:39:40.142Z,98369.13
2022-12-17T06:42:26.048Z,98368.94
2022-12-17T06:45:11.303Z,98376.63
2022-12-17T06:47:56.614Z,98374.69
2022-12-17T06:50:41.734Z,98380.56
2022-12-17T06:53:29.739Z,98380.13
2022-12-17T06:56:17.110Z,98386.72
2022-12-17T06:59:02.332Z,98413.44
2022-12-17T07:01:48.676Z,98431.59
2022-12-17T07:04:34.407Z,98440.88
2022-12-17T07:07:20.104Z,98454.78
2022-12-17T07:10:13.617Z,98461.63
2022-12-17T07:13:01.858Z,98472.69
2022-12-17T07:15:48.143Z,98462.22
2022-12-17T07:18:33.355Z,98462.47
2022-12-17T07:21:18.730Z,98471.44
2022-12-17T07:24:04.159Z,98483.13
2022-12-17T07:27:02.561Z,98478.09
2022-12-17T07:29:48.075Z,98469.59
2022-12-17T07:32:33.389Z,98450.84
2022-12-17T07:35:18.826Z,98432.59
2022-12-17T07:38:04.141Z,98446.59
2022-12-17T07:40:49.788Z,98454.47
2022-12-17T07:43:37.213Z,98465.22
2022-12-17T07:46:23.438Z,98480.78
2022-12-17T07:49:14.611Z,98487.25
2022-12-17T07:52:02.668Z,98480.78
2022-12-17T07:54:47.977Z,98490.03
2022-12-17T07:57:33.726Z,98497.75
2022-12-17T08:00:20.623Z,98499.22
2022-12-17T08:03:06.625Z,98503.81
2022-12-17T08:05:52.511Z,98502.72
2022-12-17T08:08:37.899Z,98508.13
2022-12-17T08:11:25.870Z,98517.72
2022-12-17T08:14:11.703Z,98511.25
2022-12-17T08:16:58.504Z,98517.38
2022-12-17T08:19:44.141Z,98520.84
2022-12-17T08:22:29.537Z,98525.56
2022-12-17T08:25:15.070Z,98525.94
2022-12-17T08:28:01.112Z,98539.41
2022-12-17T08:30:51.513Z,98548.31
2022-12-17T08:33:38.489Z,98553.69
2022-12-17T08:36:24.279Z,98555.31
2022-12-17T08:39:09.520Z,98553.41
2022-12-17T08:41:57.444Z,98551.34
2022-12-17T08:44:45.115Z,98548.28
2022-12-17T08:47:30.456Z,98554.84
2022-12-17T08:50:17.476Z,98567.97
2022-12-17T08:53:02.661Z,98569.09
2022-12-17T08:55:48.049Z,98563.34
2022-12-17T08:58:33.406Z,98581.50
2022-12-17T09:01:20.058Z,98575.00
2022-12-17T09:04:06.129Z,98585.03
2022-12-17T09:06:52.685Z,98591.19
2022-12-17T09:09:39.464Z,98585.09
2022-12-17T09:12:25.439Z,98582.22
2022-12-17T09:15:10.771Z,98579.44
2022-12-17T09:17:56.163Z,98584.16
2022-12-17T09:20:41.394Z,98577.69
2022-12-17T09:23:28.067Z,98578.41
2022-12-17T09:26:14.992Z,98564.50
2022-12-17T09:29:01.182Z,98573.50
2022-12-17T09:31:46.464Z,98572.28
2022-12-17T09:34:31.927Z,98574.81
2022-12-17T09:37:17.660Z,98567.72
2022-12-17T09:40:04.690Z,98579.25
2022-12-17T09:42:59.936Z,98585.38
2022-12-17T09:45:51.505Z,98562.19
2022-12-17T09:48:41.906Z,98563.50
2022-12-17T09:51:39.776Z,98578.91
2022-12-17T09:54:33.549Z,98583.19
2022-12-17T09:57:20.584Z,98569.94
2022-12-17T10:00:05.954Z,98579.72
2022-12-17T10:02:58.298Z,98590.13
2022-12-17T10:05:49.647Z,98597.47
2022-12-17T10:08:39.114Z,98602.09
2022-12-17T10:11:35.717Z,98600.56
2022-12-17T10:14:30.656Z,98605.59
2022-12-17T10:17:16.203Z,98599.75
2022-12-17T10:20:01.991Z,98604.41
2022-12-17T10:22:47.666Z,98596.59
2022-12-17T10:25:35.529Z,98603.97
2022-12-17T10:28:23.636Z,98616.03
2022-12-17T10:31:10.585Z,98611.41
2022-12-17T10:33:58.997Z,98616.38
2022-12-17T10:36:45.848Z,98610.50
2022-12-17T10:39:35.017Z,98617.56
2022-12-17T10:42:20.891Z,98624.13
2022-12-17T10:45:14.583Z,98616.78
2022-12-17T10:48:02.958Z,98624.50
2022-12-17T10:51:06.319Z,98622.97
2022-12-17T10:53:52.155Z,98634.16
2022-12-17T10:56:41.493Z,98633.78
2022-12-17T10:59:31.565Z,98634.97
2022-12-17T11:02:18.210Z,98640.72
2022-12-17T11:05:12.063Z,98642.28
2022-12-17T11:08:01.979Z,98628.34
2022-12-17T11:10:51.360Z,98625.88
2022-12-17T11:13:47.558Z,98624.13
2022-12-17T11:16:39.502Z,98617.50
2022-12-17T11:19:44.306Z,98632.88
2022-12-17T11:22:40.156Z,98645.25
2022-12-17T11:25:45.506Z,98644.00
2022-12-17T11:28:38.008Z,98634.75
2022-12-17T11:31:33.779Z,98645.00
2022-12-17T11:34:28.804Z,98659.66
2022-12-17T11:37:24.688Z,98660.44
2022-12-17T11:40:20.002Z,98665.47
2022-12-17T11:43:14.126Z,98669.31
2022-12-17T11:46:11.152Z,98670.88
2022-12-17T11:49:02.781Z,98668.94
2022-12-17T11:51:55.300Z,98672.41
2022-12-17T11:54:46.916Z,98682.88
2022-12-17T11:57:41.463Z,98681.31
2022-12-17T12:00:35.150Z,98691.38
2022-12-17T12:03:37.164Z,98685.56
2022-12-17T12:06:32.122Z,98673.56
2022-12-17T12:09:29.596Z,98688.25
2022-12-17T12:12:23.182Z,98690.22
2022-12-17T12:15:20.035Z,98701.69
2022-12-17T12:18:12.463Z,98701.81
2022-12-17T12:21:25.105Z,98702.16
2022-12-17T12:24:22.588Z,98689.06
2022-12-17T12:27:15.182Z,98699.06
2022-12-17T12:30:07.523Z,98711.34
2022-12-17T12:33:05.488Z,98720.28
2022-12-17T12:35:56.447Z,98715.28
2022-12-17T12:38:48.777Z,98727.25
2022-12-17T12:41:46.608Z,98724.06
2022-12-17T12:44:46.936Z,98720.69
2022-12-17T12:47:42.692Z,98738.03
2022-12-17T12:50:37.893Z,98746.13
2022-12-17T12:53:23.655Z,98746.63
2022-12-17T12:56:14.452Z,98756.22
2022-12-17T12:59:00.204Z,98766.25
2022-12-17T13:01:56.744Z,98780.19
2022-12-17T13:04:49.635Z,98779.84
2022-12-17T13:07:28.566Z,98774.47
2022-12-17T13:09:58.264Z,98783.25
2022-12-17T13:12:32.301Z,98790.06
2022-12-17T13:15:12.239Z,98793.13
2022-12-17T13:17:44.433Z,98798.56
2022-12-17T13:20:28.263Z,98793.38
2022-12-17T13:23:16.805Z,98791.41
2022-12-17T13:25:45.253Z,98806.31
2022-12-17T13:28:30.775Z,98803.16
2022-12-17T13:31:03.750Z,98799.16
2022-12-17T13:33:41.149Z,98809.56
2022-12-17T13:36:15.288Z,98815.06
2022-12-17T13:38:53.168Z,98815.41
2022-12-17T13:41:27.486Z,98813.81
2022-12-17T13:43:58.016Z,98826.50
2022-12-17T13:46:27.974Z,98836.47
2022-12-17T13:48:58.678Z,98837.53
2022-12-17T13:51:29.051Z,98841.56
2022-12-17T13:53:59.966Z,98849.78
2022-12-17T13:56:31.268Z,98845.13
2022-12-17T13:59:08.468Z,98850.50
2022-12-17T14:01:46.586Z,98855.91
2022-12-17T14:04:22.860Z,98865.34
2022-12-17T14:06:52.732Z,98864.63
2022-12-17T14:09:25.382Z,98869.28
2022-12-17T14:12:11.219Z,98877.31
2022-12-17T14:14:41.605Z,98886.00
2022-12-17T14:17:18.562Z,98880.06
2022-12-17T14:19:46.911Z,98894.19
2022-12-17T14:22:20.815Z,98891.41
2022-12-17T14:24:50.311Z,98900.06
2022-12-17T14:27:27.605Z,98895.34
2022-12-17T14:29:56.984Z,98907.91
2022-12-17T14:32:27.824Z,98907.59
2022-12-17T14:35:00.458Z,98915.63
2022-12-17T14:37:30.364Z,98923.69
2022-12-17T14:40:04.106Z,98930.72
2022-12-17T14:42:37.104Z,98921.53
2022-12-17T14:45:21.720Z,98927.00
2022-12-17T14:47:54.735Z,98925.84
2022-12-17T14:50:29.429Z,98930.97
2022-12-17T14:52:59.123Z,98934.38
2022-12-17T14:55:34.600Z,98938.81
2022-12-17T14:58:21.219Z,98941.13
2022-12-17T15:00:53.928Z,98943.28
2022-12-17T15:03:25.642Z,98959.00
2022-12-17T15:05:58.115Z,98960.03
2022-12-17T15:08:35.783Z,98960.53
2022-12-17T15:11:05.703Z,98950.13
2022-12-17T15:13:33.793Z,98970.91
2022-12-17T15:16:01.921Z,98951.19
2022-12-17T15:18:29.888Z,98955.94
2022-12-17T15:20:57.983Z,98956.69
2022-12-17T15:23:26.390Z,98969.44
2022-12-17T15:25:55.559Z,98963.53
2022-12-17T15:28:25.416Z,98979.09
2022-12-17T15:30:53.703Z,98982.75
2022-12-17T15:33:21.730Z,98986.75
2022-12-17T15:35:49.782Z,98989.34
2022-12-17T15:38:25.293Z,98990.50
2022-12-17T15:40:53.420Z,98982.38
2022-12-17T15:43:20.510Z,98991.78
2022-12-17T15:45:51.381Z,98995.25
2022-12-17T15:48:21.616Z,98995.66
2022-12-17T15:50:50.030Z,99004.44
2022-12-17T15:53:18.009Z,99006.91
2022-12-17T15:55:46.071Z,99014.19
2022-12-17T15:58:14.107Z,98993.84
2022-12-17T16:00:42.115Z,99006.63
2022-12-17T16:03:11.695Z,99008.69
2022-12-17T16:05:39.754Z,99015.44
2022-12-17T16:08:07.901Z,99012.78
2022-12-17T16:10:35.926Z,99022.84
2022-12-17T16:13:03.950Z,99019.38
2022-12-17T16:15:31.955Z,99026.00
2022-12-17T16:18:00.043Z,99027.97
2022-12-17T16:20:29.369Z,99041.75
2022-12-17T16:22:57.355Z,99032.78
2022-12-17T16:25:25.371Z,99048.03
2022-12-17T16:27:53.337Z,99042.09
2022-12-17T16:30:21.407Z,99044.28
2022-12-17T16:32:49.423Z,99044.44
2022-12-17T16:35:17.571Z,99055.19
2022-12-17T16:37:46.942Z,99056.81
2022-12-17T16:40:14.931Z,99055.72
2022-12-17T16:42:42.933Z,99055.19
2022-12-17T16:45:11.553Z,99059.19
2022-12-17T16:47:39.941Z,99060.31
2022-12-17T16:50:08.157Z,99071.34
2022-12-17T16:52:36.355Z,99071.72
2022-12-17T16:55:06.265Z,99065.34
2022-12-17T16:57:34.316Z,99075.97
2022-12-17T17:00:02.386Z,99076.28
2022-12-17T17:02:30.615Z,99074.66
2022-12-17T17:04:58.807Z,99079.03
2022-12-17T17:07:26.890Z,99088.69
2022-12-17T17:09:54.910Z,99077.59
2022-12-17T17:12:25.510Z,99091.19
2022-12-17T17:14:53.499Z,99094.66
2022-12-17T17:17:54.319Z,99094.66
2022-12-17T17:20:12.467Z,99086.84
2022-12-17T17:22:40.900Z,99106.78
2022-12-17T17:25:09.441Z,99115.81
2022-12-17T17:27:38.934Z,99114.53
2022-12-17T17:30:07.973Z,99116.69
2022-12-17T17:32:36.022Z,99118.69
2022-12-17T17:35:04.217Z,99126.75
2022-12-17T17:37:32.316Z,99134.88
2022-12-17T17:40:00.585Z,99137.00
2022-12-17T17:42:28.615Z,99128.78
2022-12-17T17:44:58.004Z,99117.28
2022-12-17T17:47:25.976Z,99137.38
2022-12-17T17:49:54.119Z,99143.75
2022-12-17T17:52:22.104Z,99150.38
2022-12-17T17:54:50.132Z,99157.84
2022-12-17T17:57:18.186Z,99166.75
2022-12-17T17:59:46.268Z,99159.59
2022-12-17T18:02:15.722Z,99169.63
2022-12-17T18:04:43.893Z,99169.88
2022-12-17T18:07:28.472Z,99184.00
2022-12-17T18:09:56.875Z,99184.47
2022-12-17T18:12:42.383Z,99183.34
2022-12-17T18:15:14.835Z,99182.06
2022-12-17T18:17:45.767Z,99193.75
2022-12-17T18:20:14.797Z,99198.69
2022-12-17T18:22:42.890Z,99194.31
2022-12-17T18:25:10.922Z,99192.97
2022-12-17T18:27:39.030Z,99201.66
2022-12-17T18:30:08.012Z,99209.28
2022-12-17T18:32:36.002Z,99204.00
2022-12-17T18:35:06.354Z,99234.56
2022-12-17T18:37:34.573Z,99215.75
2022-12-17T18:40:02.600Z,99230.75
2022-12-17T18:42:48.204Z,99223.53
2022-12-17T18:45:16.552Z,99262.28
2022-12-17T18:47:44.862Z,99244.47
2022-12-17T18:50:14.738Z,99238.41
2022-12-17T18:52:42.734Z,99241.47
2022-12-17T18:55:10.888Z,99253.00
2022-12-17T18:57:38.851Z,99257.38
2022-12-17T19:00:08.411Z,99256.19
2022-12-17T19:02:36.513Z,99264.31
2022-12-17T19:05:05.188Z,99258.13
2022-12-17T19:07:34.590Z,99268.81
2022-12-17T19:10:02.599Z,99259.28
2022-12-17T19:12:30.806Z,99270.44
2022-12-17T19:14:58.827Z,99264.00
2022-12-17T19:17:26.876Z,99263.59
2022-12-17T19:19:54.920Z,99269.44
2022-12-17T19:22:23.005Z,99283.88
2022-12-17T19:24:52.431Z,99287.31
2022-12-17T19:27:20.475Z,99287.91
2022-12-17T19:29:49.919Z,99297.88
2022-12-17T19:32:18.685Z,99296.91
2022-12-17T19:34:46.683Z,99313.28
2022-12-17T19:37:14.737Z,99320.66
2022-12-17T19:39:42.874Z,99328.06
2022-12-17T19:42:24.951Z,99324.19
2022-12-17T19:44:54.134Z,99326.91
2022-12-17T19:47:23.301Z,99325.72
2022-12-17T19:49:51.625Z,99327.25
2022-12-17T19:52:19.808Z,99329.66
2022-12-17T19:54:49.802Z,99337.34
2022-12-17T19:57:19.160Z,99344.78
2022-12-17T19:59:47.373Z,99350.91
2022-12-17T20:02:17.530Z,99336.34
2022-12-17T20:04:45.730Z,99345.38
2022-12-17T20:07:13.716Z,99353.03
2022-12-17T20:09:44.181Z,99340.66
2022-12-17T20:12:12.583Z,99363.03
2022-12-17T20:14:42.061Z,99352.88
2022-12-17T20:17:11.093Z,99364.13
2022-12-17T20:19:39.180Z,99356.50
2022-12-17T20:22:07.856Z,99376.28
2022-12-17T20:24:37.401Z,99381.03
2022-12-17T20:27:05.882Z,99378.94
2022-12-17T20:29:33.940Z,99387.56
2022-12-17T20:32:03.924Z,99390.16
2022-12-17T20:34:32.310Z,99388.25
2022-12-17T20:37:00.347Z,99399.06
2022-12-17T20:39:28.600Z,99399.78
2022-12-17T20:41:57.315Z,99413.75
2022-12-17T20:44:25.522Z,99422.78
2022-12-17T20:46:53.861Z,99415.19
2022-12-17T20:49:23.374Z,99411.75
2022-12-17T20:51:51.450Z,99435.56
2022-12-17T20:54:19.601Z,99440.84
2022-12-17T20:56:47.710Z,99442.63
2022-12-17T20:59:17.691Z,99445.41
2022-12-17T21:01:49.190Z,99464.25
2022-12-17T21:04:20.945Z,99429.44
2022-12-17T21:06:50.395Z,99461.03
2022-12-17T21:09:20.965Z,99453.72
2022-12-17T21:11:49.724Z,99444.81
2022-12-17T21:14:19.764Z,99449.94
2022-12-17T21:16:48.247Z,99443.41
2022-12-17T21:19:18.330Z,99460.09
2022-12-17T21:21:46.600Z,99455.94
2022-12-17T21:24:16.081Z,99461.47
2022-12-17T21:26:45.909Z,99460.53
2022-12-17T21:29:15.221Z,99454.34
2022-12-17T21:31:45.965Z,99466.00
2022-12-17T21:34:15.622Z,99475.66
2022-12-17T21:36:44.547Z,99470.06
2022-12-17T21:39:14.406Z,99478.59
2022-12-17T21:42:05.842Z,99488.69
2022-12-17T21:44:33.866Z,99481.88
2022-12-17T21:47:02.332Z,99495.88
2022-12-17T21:49:30.565Z,99501.72
2022-12-17T21:52:00.144Z,99513.38
2022-12-17T21:54:28.461Z,99510.59
2022-12-17T21:56:57.899Z,99516.94
2022-12-17T21:59:25.953Z,99512.91
2022-12-17T22:01:54.476Z,99503.59
2022-12-17T22:04:22.664Z,99511.06
2022-12-17T22:06:53.256Z,99524.22
2022-12-17T22:09:41.959Z,99527.53
2022-12-17T22:12:32.030Z,99519.53
2022-12-17T22:15:00.100Z,99537.25
2022-12-17T22:17:29.651Z,99538.19
2022-12-17T22:19:57.669Z,99536.28
2022-12-17T22:22:25.665Z,99545.75
2022-12-17T22:24:53.869Z,99540.16
2022-12-17T22:27:24.121Z,99546.63
2022-12-17T22:30:09.709Z,99566.72
2022-12-17T22:32:55.001Z,99551.41
2022-12-17T22:35:49.032Z,99555.94
2022-12-17T22:40:47.344Z,99544.97
2022-12-17T22:44:32.292Z,99553.75
2022-12-17T22:44:46.465Z,99545.53
2022-12-17T22:46:42.720Z,99553.91
2022-12-17T22:49:11.137Z,99561.94
2022-12-17T22:51:40.851Z,99553.06
2022-12-17T22:54:12.146Z,99560.06
2022-12-17T22:57:06.116Z,99562.56
2022-12-17T22:59:31.985Z,99571.25
2022-12-17T23:02:00.158Z,99564.66
2022-12-17T23:04:28.242Z,99574.31
2022-12-17T23:06:56.315Z,99581.00
2022-12-17T23:09:24.300Z,99575.25
2022-12-17T23:11:52.361Z,99578.22
2022-12-17T23:14:20.531Z,99586.16
2022-12-17T23:16:50.024Z,99600.53
2022-12-17T23:19:20.536Z,99594.09
2022-12-17T23:21:48.571Z,99608.72
2022-12-17T23:24:16.604Z,99614.94
2022-12-17T23:26:44.612Z,99624.00
2022-12-17T23:29:19.429Z,99605.81
2022-12-17T23:31:49.360Z,99610.81
2022-12-17T23:34:17.452Z,99608.56
2022-12-17T23:36:45.544Z,99618.41
2022-12-17T23:39:13.586Z,99614.06
2022-12-17T23:41:41.616Z,99619.75
2022-12-17T23:44:09.677Z,99620.59
2022-12-17T23:46:37.800Z,99623.44
2022-12-17T23:49:07.495Z,99636.22
2022-12-17T23:51:35.605Z,99638.72
2022-12-17T23:54:03.827Z,99637.22
2022-12-17T23:56:31.802Z,99643.34
2022-12-17T23:59:01.672Z,99651.78
